Latest Coastal Weather Observations for Devonport Airport

IDT60701

Issued at 1:42 pm EST Friday 17 September 2021 (issued every 10 minutes, with the page automatically refreshed every 10 minutes)

About coastal observations | Map of coastal stations | Coastal observations for TAS | Marine services | Other Formats
Station Details ID: 091126 Name: DEVONPORT AIRPORT Lat: -41.17 Lon: 146.43 Height: 8.0 m
Data from the previous 72 hours. | See also: Recent months at Devonport Airport
Date/Time
EST
Wind Sea
Height
m
Swell Vis
km
Cloud Weather Temp
°C
Press
MSL
hPa
Rain since
9am
mm
Dir  Spd
kts
Gust
kts
Height
m
Period
s
Dir
17/01:30pm ENE 13 16 - - - - 10 Clear - 13.0 1013.7 0.0
17/01:00pm ENE 13 14 - - - - 10 Partly cloudy - 12.6 1014.8 0.0
17/12:30pm ENE 13 16 - - - - 10 Partly cloudy - 12.8 1015.7 0.0
17/12:00pm NE 13 16 - - - - 10 Cloudy - 12.1 1016.6 0.0
17/11:30am NE 13 16 - - - - 10 Partly cloudy - 11.7 1017.1 0.0
17/11:00am NE 12 15 - - - - 10 Cloudy - 11.6 1017.3 0.0
17/10:30am NE 13 17 - - - - 10 Cloudy - 11.5 1017.3 0.0
17/10:00am NE 13 17 - - - - 10 Partly cloudy - 11.8 1017.2 0.0
17/09:30am NE 12 15 - - - - 10 Partly cloudy - 12.2 1017.2 0.0
17/09:00am E 5 8 - - - - 10 Cloudy - 10.9 1017.9 0.0
17/08:30am S 6 8 - - - - 10 Cloudy - 8.8 1018.5 0.0
17/08:00am SSE 7 9 - - - - 10 Cloudy - 8.0 1018.7 0.0
17/07:30am SSE 6 9 - - - - 10 Cloudy - 7.2 1018.7 0.0
17/07:00am S 8 10 - - - - 10 Cloudy - 6.6 1018.8 0.0
17/06:30am SSE 9 11 - - - - 10 Cloudy - 5.7 1018.8 0.0
17/06:00am SSE 9 11 - - - - 10 Mostly cloudy - 5.5 1019.1 0.0
17/05:30am SSE 8 9 - - - - 10 Partly cloudy - 5.5 1019.2 0.0
17/05:00am S 8 9 - - - - 10 Partly cloudy - 5.4 1019.4 0.0
17/04:30am S 8 11 - - - - 10 Partly cloudy - 5.9 1019.6 0.0
17/04:00am S 9 11 - - - - 10 Partly cloudy - 5.2 1019.5 0.0
17/03:30am SSE 9 11 - - - - 10 Cloudy - 5.0 1019.9 0.0
17/03:00am S 9 11 - - - - 10 Mostly cloudy - 4.7 1020.2 0.0
17/02:30am S 8 10 - - - - 10 Partly cloudy - 3.8 1020.6 0.0
17/02:00am SSE 10 11 - - - - 10 Partly cloudy - 3.6 1021.2 0.0
17/01:30am S 9 11 - - - - 10 - - 3.7 1021.7 0.0
17/01:00am SSE 9 11 - - - - 10 - - 4.3 1021.9 0.0
17/12:30am S 10 11 - - - - 10 - - 4.6 1021.9 0.0
17/12:00am S 9 10 - - - - 10 - - 4.8 1022.1 0.0
 
Date/Time
EST
Wind Sea
Height
m
Swell Vis
km
Cloud Weather Temp
°C
Press
MSL
hPa
Rain since
9am
mm
Dir  Spd
kts
Gust
kts
Height
m
Period
s
Dir
16/11:30pm S 9 10 - - - - 10 - - 5.2 1022.4 0.0
16/11:00pm S 7 9 - - - - 10 - - 4.8 1022.8 0.0
16/10:30pm S 7 8 - - - - 10 - - 5.0 1023.1 0.0
16/10:00pm SSE 8 9 - - - - 10 - - 4.6 1023.3 0.0
16/09:30pm SSE 7 7 - - - - 10 - - 4.8 1023.4 0.0
16/09:00pm SSE 7 9 - - - - 10 - - 5.1 1023.4 0.0
16/08:30pm SSE 6 7 - - - - 10 - - 5.5 1023.0 0.0
16/08:00pm SSE 4 5 - - - - 10 - - 5.8 1022.9 0.0
16/07:30pm SSE 5 5 - - - - 10 - - 6.2 1022.8 0.0
16/07:00pm CALM 0 0 - - - - 10 - - 7.6 1022.7 0.0
16/06:30pm NNW 5 7 - - - - 10 - - 9.7 1022.6 0.0
16/06:00pm N 5 7 - - - - 10 - - 10.2 1022.5 0.0
16/05:30pm N 6 7 - - - - 10 - - 11.6 1022.5 0.0
16/05:00pm NNW 7 9 - - - - 10 - - 12.4 1022.7 0.0
16/04:30pm NNW 8 10 - - - - 10 - - 12.6 1022.8 0.0
16/04:00pm NNW 8 10 - - - - 10 - - 13.2 1023.1 0.0
16/03:30pm NNW 9 11 - - - - 10 - - 13.1 1023.1 0.0
16/03:00pm NNW 10 12 - - - - 10 Mostly clear - 13.2 1023.2 0.0
16/02:30pm N 8 11 - - - - 10 Partly cloudy - 13.4 1023.6 0.0
16/02:00pm N 8 10 - - - - 10 Partly cloudy - 13.7 1023.8 0.0
16/01:30pm N 7 9 - - - - 10 Partly cloudy - 13.1 1024.0 0.0
16/01:00pm N 7 9 - - - - 10 Partly cloudy - 13.6 1024.2 0.0
16/12:30pm N 6 8 - - - - 10 Cloudy - 12.5 1024.6 0.0
16/12:00pm NNE 6 8 - - - - 10 Partly cloudy - 12.2 1024.9 0.0
16/11:30am N 5 7 - - - - 10 Cloudy - 12.5 1025.2 0.0
16/11:00am N 5 6 - - - - 10 Cloudy - 12.2 1025.6 0.0
16/10:30am N 6 7 - - - - 10 Partly cloudy - 12.5 1025.7 0.0
16/10:00am NE 4 6 - - - - 10 Partly cloudy - 12.3 1026.1 0.0
16/09:30am S 4 6 - - - - 10 Partly cloudy - 11.1 1026.5 0.0
16/09:00am SSE 6 7 - - - - 10 Mostly cloudy - 10.5 1026.6 0.0
16/08:30am S 7 8 - - - - 10 Cloudy - 9.3 1026.6 0.0
16/08:00am S 7 9 - - - - 10 Partly cloudy - 8.1 1026.7 0.0
16/07:30am S 6 7 - - - - - Partly cloudy - 7.2 1026.6 0.0
16/07:00am SSE 8 9 - - - - - Partly cloudy - 6.3 1026.4 0.0
16/06:30am SSE 7 9 - - - - - Partly cloudy - 6.0 1026.1 0.0
16/06:00am S 7 8 - - - - 10 Mostly clear - 6.1 1026.1 0.0
16/05:30am S 6 7 - - - - 10 Partly cloudy - 6.5 1026.1 0.0
16/05:00am SSE 6 7 - - - - 10 Partly cloudy - 7.1 1026.1 0.0
16/04:30am S 6 7 - - - - 10 Cloudy - 7.1 1025.9 0.0
16/04:00am S 5 6 - - - - 10 Partly cloudy - 7.4 1025.9 0.0
16/03:30am S 4 5 - - - - 10 Partly cloudy - 7.6 1026.0 0.0
16/03:00am CALM 0 3 - - - - 10 Cloudy - 7.3 1025.9 0.0
16/02:30am SSE 5 5 - - - - 10 Cloudy - 7.5 1026.1 0.0
16/02:00am SE 4 5 - - - - 10 Cloudy - 7.9 1026.3 0.0
16/01:30am S 4 6 - - - - 10 Partly cloudy - 8.4 1026.6 0.0
16/01:00am S 4 5 - - - - 10 Partly cloudy - 8.8 1026.8 0.0
16/12:30am S 4 5 - - - - 10 Cloudy - 9.3 1026.8 0.0
16/12:00am SSE 5 6 - - - - 10 Cloudy - 9.5 1026.9 0.0
 
Date/Time
EST
Wind Sea
Height
m
Swell Vis
km
Cloud Weather Temp
°C
Press
MSL
hPa
Rain since
9am
mm
Dir  Spd
kts
Gust
kts
Height
m
Period
s
Dir
15/11:30pm S 4 5 - - - - 10 Cloudy - 9.2 1026.9 0.0
15/11:00pm SSE 5 5 - - - - 10 Cloudy - 9.5 1026.9 0.0
15/10:30pm S 5 6 - - - - 10 Cloudy - 9.6 1027.0 0.0
15/10:00pm SSE 4 5 - - - - 10 Cloudy - 9.5 1026.8 0.0
15/09:30pm S 5 6 - - - - 10 Partly cloudy - 9.5 1026.8 0.0
15/09:00pm CALM 0 0 - - - - 10 Cloudy - 9.9 1026.7 0.0
15/08:30pm NW 2 4 - - - - 10 Cloudy - 10.5 1026.7 0.0
15/08:00pm NW 3 4 - - - - 10 Cloudy - 11.0 1026.6 0.0
15/07:30pm NW 5 6 - - - - 10 Cloudy - 11.1 1026.6 0.0
15/07:00pm NW 5 6 - - - - 10 Cloudy - 11.0 1026.3 0.0
15/06:30pm NNW 6 7 - - - - 10 Cloudy - 11.2 1026.2 0.0
15/06:00pm NNW 7 9 - - - - 10 Cloudy - 11.2 1026.2 0.0
15/05:30pm N 8 10 - - - - 10 Cloudy - 11.4 1026.0 0.0
15/05:00pm N 9 11 - - - - 10 Partly cloudy - 12.2 1026.0 0.0
15/04:30pm N 9 11 - - - - 10 Partly cloudy - 12.4 1026.0 0.0
15/04:00pm N 10 12 - - - - 10 Cloudy - 12.1 1026.0 0.0
15/03:30pm N 10 12 - - - - 10 Cloudy - 12.0 1026.1 0.0
15/03:00pm N 9 11 - - - - 10 Cloudy - 11.9 1026.3 0.0
15/02:30pm N 11 13 - - - - 10 Cloudy - 12.2 1026.4 0.0
15/02:00pm N 11 13 - - - - 10 Cloudy - 12.3 1026.5 0.0
15/01:30pm N 10 12 - - - - 10 Cloudy - 12.4 1026.7 0.0
15/01:00pm N 10 12 - - - - 10 Cloudy - 12.4 1026.9 0.0
15/12:30pm N 9 11 - - - - 10 Cloudy - 12.5 1027.2 0.0
15/12:00pm N 9 11 - - - - 10 Partly cloudy - 13.1 1027.4 0.0
15/11:30am NNE 9 11 - - - - 10 - - 12.7 1027.5 0.0
15/11:00am NNE 9 11 - - - - 10 Partly cloudy - 12.2 1027.8 0.0
15/10:30am NNE 6 8 - - - - 10 Cloudy - 12.2 1028.2 0.0
15/10:00am NNE 5 7 - - - - 10 Cloudy - 11.8 1028.3 0.0
15/09:30am NNE 5 6 - - - - 10 Partly cloudy - 11.3 1028.3 0.0
15/09:00am SSE 3 5 - - - - 10 Cloudy - 10.7 1028.3 0.0
15/08:30am SSE 5 6 - - - - 10 Cloudy - 10.0 1028.1 0.0
15/08:00am S 5 6 - - - - 10 Cloudy - 9.2 1028.1 0.0
15/07:30am S 6 7 - - - - 10 Cloudy - 8.3 1027.8 0.0
15/07:00am SSE 5 6 - - - - 10 Cloudy - 8.0 1027.5 0.0
15/06:30am SSE 5 6 - - - - 10 Cloudy - 7.5 1027.3 0.0
15/06:00am S 5 6 - - - - 10 Cloudy - 7.2 1027.1 0.0
15/05:30am SSE 5 6 - - - - 10 Partly cloudy - 6.9 1027.1 0.0
15/05:00am SSE 6 7 - - - - - Partly cloudy - 6.3 1026.9 0.0
15/04:30am SE 5 6 - - - - 10 Cloudy - 5.3 1026.8 0.0
15/04:00am SSE 6 7 - - - - 10 Partly cloudy - 5.5 1026.6 0.0
15/03:30am SSE 7 7 - - - - 10 Cloudy - 5.9 1026.6 0.0
15/03:00am SSE 6 7 - - - - 10 Mostly cloudy - 5.9 1026.7 0.0
15/02:30am S 5 6 - - - - 10 Cloudy - 6.5 1026.8 0.0
15/02:00am S 4 4 - - - - 10 Cloudy - 6.4 1027.0 0.0
15/01:30am CALM 0 0 - - - - 10 Cloudy - 6.6 1027.2 0.0
15/01:00am S 3 4 - - - - 10 Cloudy - 6.8 1027.4 0.0
15/12:30am S 3 4 - - - - 10 Cloudy - 7.4 1027.5 0.0
15/12:00am CALM 0 1 - - - - 10 Cloudy - 8.2 1027.5 0.0
 
Date/Time
EST
Wind Sea
Height
m
Swell Vis
km
Cloud Weather Temp
°C
Press
MSL
hPa
Rain since
9am
mm
Dir  Spd
kts
Gust
kts
Height
m
Period
s
Dir
14/11:30pm CALM 0 1 - - - - 10 Cloudy - 8.9 1027.4 0.0
14/11:00pm WSW 3 3 - - - - 10 Partly cloudy - 9.8 1027.4 0.0
14/10:30pm NW 7 10 - - - - 10 Partly cloudy - 10.5 1027.6 0.0
14/10:00pm NW 7 10 - - - - 10 Cloudy - 10.5 1027.6 0.0
14/09:30pm NNW 8 10 - - - - 10 Partly cloudy - 10.7 1027.6 0.0
14/09:00pm NNW 9 11 - - - - 10 Mostly cloudy - 10.6 1027.7 0.0
14/08:30pm NNW 9 12 - - - - 10 Partly cloudy - 10.7 1027.9 0.0
14/08:00pm NNW 10 12 - - - - 10 Cloudy - 10.6 1028.0 0.0
14/07:30pm NNW 9 12 - - - - 10 Partly cloudy - 10.3 1027.9 0.0
14/07:00pm NNW 10 13 - - - - 10 Partly cloudy - 10.0 1027.6 0.0
14/06:30pm NNW 11 12 - - - - 10 - - 10.2 1027.4 0.0
14/06:00pm NNW 11 13 - - - - 10 - - 10.1 1027.3 0.0
14/05:30pm NNW 12 13 - - - - 10 Partly cloudy - 10.5 1027.2 0.0
14/05:00pm NNW 11 13 - - - - 10 Partly cloudy - 11.3 1027.0 0.0
14/04:30pm NNW 10 12 - - - - 10 - - 11.7 1026.9 0.0
14/04:00pm NW 9 10 - - - - 10 Partly cloudy - 12.3 1027.0 0.0
14/03:30pm NW 9 10 - - - - 10 Cloudy - 12.1 1027.0 0.0
14/03:00pm NNW 9 11 - - - - 10 Cloudy - 11.9 1027.0 0.0
14/02:30pm N 8 10 - - - - 10 Cloudy - 11.5 1027.1 0.0
14/02:00pm N 9 11 - - - - 10 Cloudy - 11.5 1027.3 0.0

Other formats

Comma delimited format used in spreadsheet applications
http://www.bom.gov.au/fwo/IDT60701/IDT60701.95960.axf

JavaScript Object Notation format (JSON) in row-major order
http://www.bom.gov.au/fwo/IDT60701/IDT60701.95960.json

Data quality

Most of these data are generated automatically and are frequently updated. Quality checks on data are not normally performed. It is possible for incorrect values to appear. Refer to information at About Latest Weather Observations and please check the disclaimer before using these data.